Buoy 43533

sailwx.info

Track history (hours):
 
Tides and Currents Weather Stations Pressure Air Temp Water Temp Dewpoint Dewpoint Depression Visibility Wind Speed Wind Dir Waves Ship Positions

Drifting buoy 43533

Last reported at 2017-Dec-13 19:00 UTC. Time now 2018-Jan-18 17:36 UTC.
Position N 15°49' W 126°30'.
Warning: this ship's position is 35 days out of date.

Length 24 m.

Type: Fishing. MMSI: 412466549.

Water temperature 26.0 ° C

Date/timePositionNaut miles runAvg speedWind from/ knotsBaromVisibWave heightAir tempDewpointWater temp
2017-Dec-13 19:00N 15°49' W 126°30'1 0.6 26.0
2017-Dec-13 18:00N 15°50' W 126°30'0 0.0 25.9
2017-Dec-13 17:00N 15°50' W 126°30'1 0.6 25.9
2017-Dec-13 16:00N 15°49' W 126°30'0 0.0 25.9
2017-Dec-13 15:00N 15°49' W 126°30'1 1.2 25.9
2017-Dec-13 14:00N 15°49' W 126°29'0 0.0 25.9
2017-Dec-13 13:00N 15°49' W 126°29'0 0.0 25.9
2017-Dec-13 12:00N 15°49' W 126°29'1 0.6 25.9
2017-Dec-13 11:00N 15°49' W 126°28'1 0.6 26.0
2017-Dec-13 10:00N 15°49' W 126°29'1 0.1 26.0
2017-Dec-13 06:00N 15°49' W 126°28'1 0.6 26.0
2017-Dec-13 05:00N 15°50' W 126°28'0 0.0 26.0
2017-Dec-13 04:00N 15°50' W 126°28'1 0.8 26.0
2017-Dec-13 03:00N 15°50' W 126°28'1 0.3 26.0
2017-Dec-13 01:00N 15°51' W 126°28'0 0.0 26.0
2017-Dec-13 00:00N 15°51' W 126°28'0 0.0 26.0
2017-Dec-12 23:00N 15°51' W 126°28'0 0.0 26.1
2017-Dec-12 22:00N 15°51' W 126°28'1 0.1 26.1
2017-Dec-12 18:00N 15°51' W 126°28'1 1.2 26.0
2017-Dec-12 17:00N 15°51' W 126°27'0 0.0 26.0
2017-Dec-12 16:00N 15°51' W 126°27'0 0.0 26.0
2017-Dec-12 15:00N 15°51' W 126°27'1 1.3 26.0
2017-Dec-12 14:00N 15°52' W 126°26'0 0.0 26.0
2017-Dec-12 13:00N 15°52' W 126°26'0 0.0 26.0
2017-Dec-12 12:00N 15°52' W 126°26'1 1.3 26.0
2017-Dec-12 11:00N 15°52' W 126°25'1 0.1 26.0
2017-Dec-12 06:00N 15°53' W 126°25'0 0.0 26.1
2017-Dec-12 05:00N 15°53' W 126°25'1 0.6 26.1
2017-Dec-12 04:00N 15°53' W 126°25'1 0.4 26.1
2017-Dec-12 02:00N 15°54' W 126°25'1 0.6 26.1
2017-Dec-12 01:00N 15°54' W 126°25'1 0.6 26.1
2017-Dec-12 00:00N 15°54' W 126°24'0 0.0 26.1
2017-Dec-11 23:00N 15°54' W 126°24'0 0.0 26.1
2017-Dec-11 22:00N 15°54' W 126°24'1 0.3 26.1
2017-Dec-11 19:00N 15°55' W 126°23'0 0.0 26.1
2017-Dec-11 18:00N 15°55' W 126°23'0 0.0 26.1
2017-Dec-11 17:00N 15°55' W 126°23'1 0.6 26.1
2017-Dec-11 16:00N 15°55' W 126°23'1 0.6 26.1
2017-Dec-11 15:00N 15°55' W 126°23'0 0.0 26.1
2017-Dec-11 14:00N 15°55' W 126°23'1 0.6 26.1
2017-Dec-11 13:00N 15°56' W 126°23'0 0.0 26.1
2017-Dec-11 12:00N 15°56' W 126°23'2 1.9 26.1
2017-Dec-11 11:00N 15°58' W 126°22'0 0.0 26.1
2017-Dec-11 06:00N 15°58' W 126°22'1 0.6 26.1
2017-Dec-11 05:00N 15°58' W 126°22'1 0.6 26.1
2017-Dec-11 04:00N 15°58' W 126°22'1 0.6 26.1
2017-Dec-11 02:00N 15°59' W 126°22'0 0.0 26.1
2017-Dec-11 01:00N 15°59' W 126°22'1 0.6 26.1
2017-Dec-11 00:00N 16°00' W 126°22'0 0.0 26.1
2017-Dec-10 23:00N 16°00' W 126°22'1 0.6 26.1
2017-Dec-10 22:00N 15°59' W 126°22'2 0.5 26.1
2017-Dec-10 18:00N 16°01' W 126°22'1 0.8 26.1
2017-Dec-10 17:00N 16°02' W 126°23'1 0.6 26.1
2017-Dec-10 16:00N 16°02' W 126°23'0 0.0 26.1
2017-Dec-10 15:00N 16°02' W 126°23'0 0.0 26.1
2017-Dec-10 14:00N 16°02' W 126°23'0 0.0 26.1
2017-Dec-10 13:00N 16°02' W 126°23'1 0.6 26.1
2017-Dec-10 12:00N 16°02' W 126°23'0 0.0 26.1
2017-Dec-10 11:00N 16°02' W 126°23'0 0.0 26.1
2017-Dec-10 06:00N 16°02' W 126°23'1 0.4 26.1
2017-Dec-10 03:00N 16°04' W 126°23'0 0.0 26.1
2017-Dec-10 02:00N 16°04' W 126°23'1 0.8 26.1
2017-Dec-10 01:00N 16°04' W 126°23'0 0.0 26.1
2017-Dec-09 23:00N 16°04' W 126°23'2 0.3 26.1
2017-Dec-09 17:00N 16°06' W 126°23'1 0.6 26.1
2017-Dec-09 16:00N 16°07' W 126°23'0 0.0 26.1
2017-Dec-09 15:00N 16°07' W 126°23'1 1.2 26.1
2017-Dec-09 14:00N 16°08' W 126°23'0 0.0 26.1
2017-Dec-09 13:00N 16°08' W 126°23'1 1.2 26.1
2017-Dec-09 12:00N 16°09' W 126°23'1 1.2 26.1
2017-Dec-09 11:00N 16°08' W 126°23'1 0.3 26.1
2017-Dec-09 06:00N 16°09' W 126°24'1 0.6 26.1
2017-Dec-09 05:00N 16°09' W 126°23'1 0.4 26.1
2017-Dec-09 03:00N 16°10' W 126°24'1 1.2 26.1
2017-Dec-09 02:00N 16°10' W 126°25'0 0.0 26.1
2017-Dec-09 01:00N 16°10' W 126°25'0 0.0 26.1
2017-Dec-08 23:00N 16°10' W 126°25'1 0.3 26.1
2017-Dec-08 19:00N 16°11' W 126°25'1 0.6 26.1
2017-Dec-08 18:00N 16°11' W 126°26'0 0.0 26.1
2017-Dec-08 17:00N 16°11' W 126°26'0 0.0 26.1
2017-Dec-08 15:00N 16°11' W 126°26'1 0.6 26.1
2017-Dec-08 13:00N 16°11' W 126°27'1 0.8 26.1
2017-Dec-08 12:00N 16°11' W 126°26'0 0.0 26.1
2017-Dec-08 11:00N 16°11' W 126°26'1 0.2 26.1
2017-Dec-08 06:00N 16°11' W 126°25'1 0.8 26.1
2017-Dec-08 05:00N 16°10' W 126°26'0 0.0 26.1
2017-Dec-08 04:00N 16°10' W 126°26'0 0.0 26.1
2017-Dec-08 03:00N 16°10' W 126°26'1 1.2 26.1
2017-Dec-08 02:00N 16°10' W 126°25'0 0.0 26.1
2017-Dec-08 01:00N 16°10' W 126°25'1 1.2 26.1
2017-Dec-08 00:00N 16°10' W 126°26'1 1.2 26.1
2017-Dec-07 23:00N 16°10' W 126°25'2 0.4 26.2
2017-Dec-07 18:00N 16°12' W 126°25'0 0.0 26.1
2017-Dec-07 17:00N 16°12' W 126°25'1 0.6 26.1
2017-Dec-07 16:00N 16°12' W 126°25'1 0.3 26.1
2017-Dec-07 14:00N 16°13' W 126°25'1 0.6 26.1
2017-Dec-07 12:00N 16°13' W 126°26'0 0.0 26.1
2017-Dec-07 11:00N 16°13' W 126°26'0 0.0 26.1
2017-Dec-07 10:00N 16°13' W 126°26'1 0.2 26.1
2017-Dec-07 06:00N 16°14' W 126°26'0 0.0 26.1
2017-Dec-07 05:00N 16°14' W 126°26'0 0.0 26.1
2017-Dec-07 04:00N 16°14' W 126°26'0 0.0 26.1
2017-Dec-07 03:00N 16°14' W 126°26'1 0.6 26.1
2017-Dec-07 02:00N 16°14' W 126°26'1 0.8 26.1
2017-Dec-07 01:00N 16°13' W 126°26'0 0.0 26.2
2017-Dec-07 00:00N 16°13' W 126°26'0 0.0 26.2
2017-Dec-06 23:00N 16°13' W 126°26'1 0.2 26.2
2017-Dec-06 19:00N 16°14' W 126°27'0 0.0 26.1
2017-Dec-06 18:00N 16°14' W 126°27'1 0.6 26.1
2017-Dec-06 17:00N 16°14' W 126°28'1 0.6 26.1
2017-Dec-06 16:00N 16°13' W 126°28'0 0.0 26.1
2017-Dec-06 15:00N 16°13' W 126°28'1 1.3 26.1
2017-Dec-06 14:00N 16°14' W 126°26'1 0.6 26.1
2017-Dec-06 13:00N 16°14' W 126°27'1 0.6 26.1
2017-Dec-06 12:00N 16°14' W 126°26'0 0.0 26.1
2017-Dec-06 11:00N 16°14' W 126°26'0 0.0 26.1
2017-Dec-06 10:00N 16°14' W 126°26'1 0.3 26.1
2017-Dec-06 06:00N 16°14' W 126°28'1 0.6 26.1
2017-Dec-06 05:00N 16°15' W 126°28'1 0.6 26.1
2017-Dec-06 04:00N 16°14' W 126°28'0 0.0 26.1
2017-Dec-06 03:00N 16°14' W 126°28'1 0.6 26.1
2017-Dec-06 02:00N 16°15' W 126°28'0 0.0 26.1
2017-Dec-06 00:00N 16°15' W 126°28'1 0.6 26.1
2017-Dec-05 23:00N 16°16' W 126°28'0 0.0 26.1
2017-Dec-05 22:00N 16°16' W 126°28'0 0.0 26.1
2017-Dec-05 21:00N 16°16' W 126°28'0 0.0 26.1
2017-Dec-05 18:00N 16°16' W 126°28'1 0.6 26.1
2017-Dec-05 17:00N 16°16' W 126°27'1 1.3 26.1
2017-Dec-05 16:00N 16°15' W 126°28'1 0.8 26.1
2017-Dec-05 15:00N 16°16' W 126°28'0 0.0 26.1
2017-Dec-05 14:00N 16°16' W 126°28'1 0.6 26.1
2017-Dec-05 13:00N 16°16' W 126°28'1 0.8 26.1
2017-Dec-05 12:00N 16°15' W 126°28'1 0.8 26.1
2017-Dec-05 11:00N 16°16' W 126°28'0 0.0 26.1
2017-Dec-05 07:00N 16°16' W 126°28'1 0.8 26.1
2017-Dec-05 06:00N 16°16' W 126°28'0 0.0 26.1
2017-Dec-05 05:00N 16°16' W 126°28'0 0.0 26.1
2017-Dec-05 04:00N 16°16' W 126°28'0 0.0 26.1
2017-Dec-05 03:00N 16°16' W 126°28'0 0.0 -0.0
2017-Dec-05 02:00N 16°16' W 126°28'0 0.0 26.1
2017-Dec-05 01:00N 16°16' W 126°28'0 0.0 26.1
2017-Dec-05 00:00N 16°16' W 126°28'1 0.8 26.1
2017-Dec-04 23:00N 16°17' W 126°28'1 0.6 26.1
2017-Dec-04 22:00N 16°17' W 126°29'0 0.0 26.1
2017-Dec-04 19:00N 16°17' W 126°29'1 0.6 26.1
2017-Dec-04 18:00N 16°17' W 126°29'0 0.0 26.1
2017-Dec-04 17:00N 16°17' W 126°29'1 0.6 26.1
2017-Dec-04 16:00N 16°17' W 126°29'0 0.0 26.1
2017-Dec-04 15:00N 16°17' W 126°29'1 0.6 26.1
2017-Dec-04 14:00N 16°17' W 126°29'1 0.6 26.1
2017-Dec-04 13:00N 16°17' W 126°29'1 0.7 26.1
2017-Dec-04 11:00N 16°16' W 126°29'1 1.3 26.1
2017-Dec-04 10:00N 16°17' W 126°29'1 0.3 26.1
2017-Dec-04 06:00N 16°16' W 126°29'0 0.0 26.1
2017-Dec-04 05:00N 16°16' W 126°29'0 0.0 26.1
2017-Dec-04 04:00N 16°16' W 126°29'1 0.6 26.1
2017-Dec-04 03:00N 16°15' W 126°29'0 0.0 26.1
2017-Dec-04 01:00N 16°15' W 126°29'0 0.0 26.2
2017-Dec-04 00:00N 16°15' W 126°29'1 0.8 26.2
2017-Dec-03 23:00N 16°16' W 126°28'0 0.0 26.2
2017-Dec-03 22:00N 16°16' W 126°28'0 0.0 26.2
2017-Dec-03 19:00N 16°16' W 126°28'   26.1
Track history (hours):
 
Tides and Currents Weather Stations Pressure Air Temp Water Temp Dewpoint Dewpoint Depression Visibility Wind Speed Wind Dir Waves Ship Positions

Drifting buoy 43533

Last reported at 2017-Dec-13 19:00 UTC. Time now 2018-Jan-18 17:36 UTC.
Position N 15°49' W 126°30'.
Warning: this ship's position is 35 days out of date.

Length 24 m.

Type: Fishing. MMSI: 412466549.

Water temperature 26.0 ° C

Date/timePositionNaut miles runAvg speedWind from/ knotsBaromVisibWave heightAir tempDewpointWater temp
2017-Dec-13 19:00N 15°49' W 126°30'1 0.6 26.0
2017-Dec-13 18:00N 15°50' W 126°30'0 0.0 25.9
2017-Dec-13 17:00N 15°50' W 126°30'1 0.6 25.9
2017-Dec-13 16:00N 15°49' W 126°30'0 0.0 25.9
2017-Dec-13 15:00N 15°49' W 126°30'1 1.2 25.9
2017-Dec-13 14:00N 15°49' W 126°29'0 0.0 25.9
2017-Dec-13 13:00N 15°49' W 126°29'0 0.0 25.9
2017-Dec-13 12:00N 15°49' W 126°29'1 0.6 25.9
2017-Dec-13 11:00N 15°49' W 126°28'1 0.6 26.0
2017-Dec-13 10:00N 15°49' W 126°29'1 0.1 26.0
2017-Dec-13 06:00N 15°49' W 126°28'1 0.6 26.0
2017-Dec-13 05:00N 15°50' W 126°28'0 0.0 26.0
2017-Dec-13 04:00N 15°50' W 126°28'1 0.8 26.0
2017-Dec-13 03:00N 15°50' W 126°28'1 0.3 26.0
2017-Dec-13 01:00N 15°51' W 126°28'0 0.0 26.0
2017-Dec-13 00:00N 15°51' W 126°28'0 0.0 26.0
2017-Dec-12 23:00N 15°51' W 126°28'0 0.0 26.1
2017-Dec-12 22:00N 15°51' W 126°28'1 0.1 26.1
2017-Dec-12 18:00N 15°51' W 126°28'1 1.2 26.0
2017-Dec-12 17:00N 15°51' W 126°27'0 0.0 26.0
2017-Dec-12 16:00N 15°51' W 126°27'0 0.0 26.0
2017-Dec-12 15:00N 15°51' W 126°27'1 1.3 26.0
2017-Dec-12 14:00N 15°52' W 126°26'0 0.0 26.0
2017-Dec-12 13:00N 15°52' W 126°26'0 0.0 26.0
2017-Dec-12 12:00N 15°52' W 126°26'1 1.3 26.0
2017-Dec-12 11:00N 15°52' W 126°25'1 0.1 26.0
2017-Dec-12 06:00N 15°53' W 126°25'0 0.0 26.1
2017-Dec-12 05:00N 15°53' W 126°25'1 0.6 26.1
2017-Dec-12 04:00N 15°53' W 126°25'1 0.4 26.1
2017-Dec-12 02:00N 15°54' W 126°25'1 0.6 26.1
2017-Dec-12 01:00N 15°54' W 126°25'1 0.6 26.1
2017-Dec-12 00:00N 15°54' W 126°24'0 0.0 26.1
2017-Dec-11 23:00N 15°54' W 126°24'0 0.0 26.1
2017-Dec-11 22:00N 15°54' W 126°24'1 0.3 26.1
2017-Dec-11 19:00N 15°55' W 126°23'0 0.0 26.1
2017-Dec-11 18:00N 15°55' W 126°23'0 0.0 26.1
2017-Dec-11 17:00N 15°55' W 126°23'1 0.6 26.1
2017-Dec-11 16:00N 15°55' W 126°23'1 0.6 26.1
2017-Dec-11 15:00N 15°55' W 126°23'0 0.0 26.1
2017-Dec-11 14:00N 15°55' W 126°23'1 0.6 26.1
2017-Dec-11 13:00N 15°56' W 126°23'0 0.0 26.1
2017-Dec-11 12:00N 15°56' W 126°23'2 1.9 26.1
2017-Dec-11 11:00N 15°58' W 126°22'0 0.0 26.1
2017-Dec-11 06:00N 15°58' W 126°22'1 0.6 26.1
2017-Dec-11 05:00N 15°58' W 126°22'1 0.6 26.1
2017-Dec-11 04:00N 15°58' W 126°22'1 0.6 26.1
2017-Dec-11 02:00N 15°59' W 126°22'0 0.0 26.1
2017-Dec-11 01:00N 15°59' W 126°22'1 0.6 26.1
2017-Dec-11 00:00N 16°00' W 126°22'0 0.0 26.1
2017-Dec-10 23:00N 16°00' W 126°22'1 0.6 26.1
2017-Dec-10 22:00N 15°59' W 126°22'2 0.5 26.1
2017-Dec-10 18:00N 16°01' W 126°22'1 0.8 26.1
2017-Dec-10 17:00N 16°02' W 126°23'1 0.6 26.1
2017-Dec-10 16:00N 16°02' W 126°23'0 0.0 26.1
2017-Dec-10 15:00N 16°02' W 126°23'0 0.0 26.1
2017-Dec-10 14:00N 16°02' W 126°23'0 0.0 26.1
2017-Dec-10 13:00N 16°02' W 126°23'1 0.6 26.1
2017-Dec-10 12:00N 16°02' W 126°23'0 0.0 26.1
2017-Dec-10 11:00N 16°02' W 126°23'0 0.0 26.1
2017-Dec-10 06:00N 16°02' W 126°23'1 0.4 26.1
2017-Dec-10 03:00N 16°04' W 126°23'0 0.0 26.1
2017-Dec-10 02:00N 16°04' W 126°23'1 0.8 26.1
2017-Dec-10 01:00N 16°04' W 126°23'0 0.0 26.1
2017-Dec-09 23:00N 16°04' W 126°23'2 0.3 26.1
2017-Dec-09 17:00N 16°06' W 126°23'1 0.6 26.1
2017-Dec-09 16:00N 16°07' W 126°23'0 0.0 26.1
2017-Dec-09 15:00N 16°07' W 126°23'1 1.2 26.1
2017-Dec-09 14:00N 16°08' W 126°23'0 0.0 26.1
2017-Dec-09 13:00N 16°08' W 126°23'1 1.2 26.1
2017-Dec-09 12:00N 16°09' W 126°23'1 1.2 26.1
2017-Dec-09 11:00N 16°08' W 126°23'1 0.3 26.1
2017-Dec-09 06:00N 16°09' W 126°24'1 0.6 26.1
2017-Dec-09 05:00N 16°09' W 126°23'1 0.4 26.1
2017-Dec-09 03:00N 16°10' W 126°24'1 1.2 26.1
2017-Dec-09 02:00N 16°10' W 126°25'0 0.0 26.1
2017-Dec-09 01:00N 16°10' W 126°25'0 0.0 26.1
2017-Dec-08 23:00N 16°10' W 126°25'1 0.3 26.1
2017-Dec-08 19:00N 16°11' W 126°25'1 0.6 26.1
2017-Dec-08 18:00N 16°11' W 126°26'0 0.0 26.1
2017-Dec-08 17:00N 16°11' W 126°26'0 0.0 26.1
2017-Dec-08 15:00N 16°11' W 126°26'1 0.6 26.1
2017-Dec-08 13:00N 16°11' W 126°27'1 0.8 26.1
2017-Dec-08 12:00N 16°11' W 126°26'0 0.0 26.1
2017-Dec-08 11:00N 16°11' W 126°26'1 0.2 26.1
2017-Dec-08 06:00N 16°11' W 126°25'1 0.8 26.1
2017-Dec-08 05:00N 16°10' W 126°26'0 0.0 26.1
2017-Dec-08 04:00N 16°10' W 126°26'0 0.0 26.1
2017-Dec-08 03:00N 16°10' W 126°26'1 1.2 26.1
2017-Dec-08 02:00N 16°10' W 126°25'0 0.0 26.1
2017-Dec-08 01:00N 16°10' W 126°25'1 1.2 26.1
2017-Dec-08 00:00N 16°10' W 126°26'1 1.2 26.1
2017-Dec-07 23:00N 16°10' W 126°25'2 0.4 26.2
2017-Dec-07 18:00N 16°12' W 126°25'0 0.0 26.1
2017-Dec-07 17:00N 16°12' W 126°25'1 0.6 26.1
2017-Dec-07 16:00N 16°12' W 126°25'1 0.3 26.1
2017-Dec-07 14:00N 16°13' W 126°25'1 0.6 26.1
2017-Dec-07 12:00N 16°13' W 126°26'0 0.0 26.1
2017-Dec-07 11:00N 16°13' W 126°26'0 0.0 26.1
2017-Dec-07 10:00N 16°13' W 126°26'1 0.2 26.1
2017-Dec-07 06:00N 16°14' W 126°26'0 0.0 26.1
2017-Dec-07 05:00N 16°14' W 126°26'0 0.0 26.1
2017-Dec-07 04:00N 16°14' W 126°26'0 0.0 26.1
2017-Dec-07 03:00N 16°14' W 126°26'1 0.6 26.1
2017-Dec-07 02:00N 16°14' W 126°26'1 0.8 26.1
2017-Dec-07 01:00N 16°13' W 126°26'0 0.0 26.2
2017-Dec-07 00:00N 16°13' W 126°26'0 0.0 26.2
2017-Dec-06 23:00N 16°13' W 126°26'1 0.2 26.2
2017-Dec-06 19:00N 16°14' W 126°27'0 0.0 26.1
2017-Dec-06 18:00N 16°14' W 126°27'1 0.6 26.1
2017-Dec-06 17:00N 16°14' W 126°28'1 0.6 26.1
2017-Dec-06 16:00N 16°13' W 126°28'0 0.0 26.1
2017-Dec-06 15:00N 16°13' W 126°28'1 1.3 26.1
2017-Dec-06 14:00N 16°14' W 126°26'1 0.6 26.1
2017-Dec-06 13:00N 16°14' W 126°27'1 0.6 26.1
2017-Dec-06 12:00N 16°14' W 126°26'0 0.0 26.1
2017-Dec-06 11:00N 16°14' W 126°26'0 0.0 26.1
2017-Dec-06 10:00N 16°14' W 126°26'1 0.3 26.1
2017-Dec-06 06:00N 16°14' W 126°28'1 0.6 26.1
2017-Dec-06 05:00N 16°15' W 126°28'1 0.6 26.1
2017-Dec-06 04:00N 16°14' W 126°28'0 0.0 26.1
2017-Dec-06 03:00N 16°14' W 126°28'1 0.6 26.1
2017-Dec-06 02:00N 16°15' W 126°28'0 0.0 26.1
2017-Dec-06 00:00N 16°15' W 126°28'1 0.6 26.1
2017-Dec-05 23:00N 16°16' W 126°28'0 0.0 26.1
2017-Dec-05 22:00N 16°16' W 126°28'0 0.0 26.1
2017-Dec-05 21:00N 16°16' W 126°28'0 0.0 26.1
2017-Dec-05 18:00N 16°16' W 126°28'1 0.6 26.1
2017-Dec-05 17:00N 16°16' W 126°27'1 1.3 26.1
2017-Dec-05 16:00N 16°15' W 126°28'1 0.8 26.1
2017-Dec-05 15:00N 16°16' W 126°28'0 0.0 26.1
2017-Dec-05 14:00N 16°16' W 126°28'1 0.6 26.1
2017-Dec-05 13:00N 16°16' W 126°28'1 0.8 26.1
2017-Dec-05 12:00N 16°15' W 126°28'1 0.8 26.1
2017-Dec-05 11:00N 16°16' W 126°28'0 0.0 26.1
2017-Dec-05 07:00N 16°16' W 126°28'1 0.8 26.1
2017-Dec-05 06:00N 16°16' W 126°28'0 0.0 26.1
2017-Dec-05 05:00N 16°16' W 126°28'0 0.0 26.1
2017-Dec-05 04:00N 16°16' W 126°28'0 0.0 26.1
2017-Dec-05 03:00N 16°16' W 126°28'0 0.0 -0.0
2017-Dec-05 02:00N 16°16' W 126°28'0 0.0 26.1
2017-Dec-05 01:00N 16°16' W 126°28'0 0.0 26.1
2017-Dec-05 00:00N 16°16' W 126°28'1 0.8 26.1
2017-Dec-04 23:00N 16°17' W 126°28'1 0.6 26.1
2017-Dec-04 22:00N 16°17' W 126°29'0 0.0 26.1
2017-Dec-04 19:00N 16°17' W 126°29'1 0.6 26.1
2017-Dec-04 18:00N 16°17' W 126°29'0 0.0 26.1
2017-Dec-04 17:00N 16°17' W 126°29'1 0.6 26.1
2017-Dec-04 16:00N 16°17' W 126°29'0 0.0 26.1
2017-Dec-04 15:00N 16°17' W 126°29'1 0.6 26.1
2017-Dec-04 14:00N 16°17' W 126°29'1 0.6 26.1
2017-Dec-04 13:00N 16°17' W 126°29'1 0.7 26.1
2017-Dec-04 11:00N 16°16' W 126°29'1 1.3 26.1
2017-Dec-04 10:00N 16°17' W 126°29'1 0.3 26.1
2017-Dec-04 06:00N 16°16' W 126°29'0 0.0 26.1
2017-Dec-04 05:00N 16°16' W 126°29'0 0.0 26.1
2017-Dec-04 04:00N 16°16' W 126°29'1 0.6 26.1
2017-Dec-04 03:00N 16°15' W 126°29'0 0.0 26.1
2017-Dec-04 01:00N 16°15' W 126°29'0 0.0 26.2
2017-Dec-04 00:00N 16°15' W 126°29'1 0.8 26.2
2017-Dec-03 23:00N 16°16' W 126°28'0 0.0 26.2
2017-Dec-03 22:00N 16°16' W 126°28'0 0.0 26.2
2017-Dec-03 19:00N 16°16' W 126°28'   26.1

Dump ship's entire track history